createdAt,value
2019-02-22T00:02:24.587Z,8.50
2019-02-22T00:04:54.081Z,8.50
2019-02-22T00:07:23.717Z,8.40
2019-02-22T00:09:53.254Z,8.30
2019-02-22T00:12:22.658Z,8.40
2019-02-22T00:14:52.174Z,8.40
2019-02-22T00:17:21.739Z,8.50
2019-02-22T00:19:51.251Z,8.50
2019-02-22T00:22:20.747Z,8.50
2019-02-22T00:24:50.355Z,8.40
2019-02-22T00:27:19.842Z,8.40
2019-02-22T00:29:49.381Z,8.40
2019-02-22T00:32:19.024Z,8.40
2019-02-22T00:34:48.634Z,8.50
2019-02-22T00:37:18.248Z,8.50
2019-02-22T00:39:47.814Z,8.50
2019-02-22T00:42:17.418Z,8.60
2019-02-22T00:44:47.023Z,8.60
2019-02-22T00:47:16.529Z,8.70
2019-02-22T00:49:46.054Z,8.70
2019-02-22T00:52:15.647Z,8.60
2019-02-22T00:54:45.128Z,8.70
2019-02-22T00:57:14.673Z,8.70
2019-02-22T00:59:44.200Z,8.80
2019-02-22T01:02:13.778Z,8.80
2019-02-22T01:04:43.455Z,8.80
2019-02-22T01:07:12.986Z,8.60
2019-02-22T01:09:42.709Z,8.60
2019-02-22T01:12:12.291Z,8.60
2019-02-22T01:14:41.774Z,8.60
2019-02-22T01:17:11.352Z,8.70
2019-02-22T01:19:40.885Z,8.70
2019-02-22T01:22:10.475Z,8.70
2019-02-22T01:24:39.984Z,8.70
2019-02-22T01:27:09.449Z,8.60
2019-02-22T01:29:38.906Z,8.60
2019-02-22T01:32:08.384Z,8.70
2019-02-22T01:34:37.892Z,8.60
2019-02-22T01:37:07.457Z,8.60
2019-02-22T01:39:37.007Z,8.60
2019-02-22T01:42:06.524Z,8.60
2019-02-22T01:44:36.029Z,8.60
2019-02-22T01:47:05.785Z,8.50
2019-02-22T01:49:35.603Z,8.50
2019-02-22T01:52:05.223Z,8.50
2019-02-22T01:54:34.764Z,8.50
2019-02-22T01:57:04.331Z,8.60
2019-02-22T01:59:33.839Z,8.60
2019-02-22T02:02:03.305Z,8.60
2019-02-22T02:04:32.944Z,8.50
2019-02-22T02:07:02.585Z,8.50
2019-02-22T02:09:32.117Z,8.50
2019-02-22T02:12:02.105Z,8.40
2019-02-22T02:14:31.774Z,8.40
2019-02-22T02:17:01.302Z,8.40
2019-02-22T02:19:30.976Z,8.40
2019-02-22T02:22:00.619Z,8.40
2019-02-22T02:24:30.304Z,8.40
2019-02-22T02:26:59.798Z,8.40
2019-02-22T02:29:29.312Z,8.40
2019-02-22T02:31:58.890Z,8.50
2019-02-22T02:34:28.428Z,8.50
2019-02-22T02:36:58.020Z,8.60
2019-02-22T02:39:27.588Z,8.60
2019-02-22T02:41:57.197Z,8.70
2019-02-22T02:44:26.745Z,8.60
2019-02-22T02:46:56.181Z,8.70
2019-02-22T02:49:25.925Z,8.70
2019-02-22T02:51:55.360Z,8.70
2019-02-22T02:54:24.859Z,8.70
2019-02-22T02:56:54.407Z,8.70
2019-02-22T02:59:24.005Z,8.70
2019-02-22T03:01:53.570Z,8.70
2019-02-22T03:04:22.987Z,8.70
2019-02-22T03:06:58.478Z,8.70
2019-02-22T03:09:27.931Z,8.70
2019-02-22T03:11:57.927Z,8.70
2019-02-22T03:14:27.685Z,8.80
2019-02-22T03:16:57.463Z,8.80
2019-02-22T03:19:26.957Z,8.70
2019-02-22T03:21:56.614Z,8.80
2019-02-22T03:24:26.120Z,8.80
2019-02-22T03:26:55.616Z,8.70
2019-02-22T03:29:25.148Z,8.70
2019-02-22T03:31:54.723Z,8.70
2019-02-22T03:34:24.217Z,8.70
2019-02-22T03:36:53.764Z,8.70
2019-02-22T03:39:23.625Z,8.60
2019-02-22T03:41:53.123Z,8.70
2019-02-22T03:44:22.728Z,8.70
2019-02-22T03:46:52.240Z,8.70
2019-02-22T03:49:21.724Z,8.70
2019-02-22T03:51:51.328Z,8.70
2019-02-22T03:54:20.917Z,8.70
2019-02-22T03:56:50.660Z,8.70
2019-02-22T03:59:20.321Z,8.70
2019-02-22T04:01:50.020Z,8.60
2019-02-22T04:04:19.634Z,8.70
2019-02-22T04:06:49.294Z,8.70
2019-02-22T04:09:18.797Z,8.80
2019-02-22T04:11:48.364Z,8.90
2019-02-22T04:14:17.846Z,8.90
2019-02-22T04:16:47.326Z,8.90
2019-02-22T04:19:17.648Z,8.90
2019-02-22T04:21:47.163Z,8.70
2019-02-22T04:24:16.618Z,8.70
2019-02-22T04:26:46.193Z,8.70
2019-02-22T04:29:15.982Z,8.70
2019-02-22T04:31:45.475Z,8.70
2019-02-22T04:34:15.015Z,8.80
2019-02-22T04:36:44.571Z,8.80
2019-02-22T04:39:14.222Z,8.70
2019-02-22T04:41:43.814Z,8.70
2019-02-22T04:44:13.378Z,8.70
2019-02-22T04:46:42.909Z,8.70
2019-02-22T04:49:12.549Z,8.70
2019-02-22T04:51:42.050Z,8.60
2019-02-22T04:54:11.632Z,8.60
2019-02-22T04:56:41.238Z,8.60
2019-02-22T04:59:10.743Z,8.60
2019-02-22T05:01:40.311Z,8.70
2019-02-22T05:04:09.937Z,8.70
2019-02-22T05:06:39.546Z,8.60
2019-02-22T05:09:09.068Z,8.70
2019-02-22T05:11:38.625Z,8.70
2019-02-22T05:14:08.322Z,8.60
2019-02-22T05:16:38.036Z,8.60
2019-02-22T05:19:07.643Z,8.60
2019-02-22T05:21:37.419Z,8.70
2019-02-22T05:24:07.884Z,8.70
2019-02-22T05:26:37.355Z,8.60
2019-02-22T05:29:06.854Z,8.60
2019-02-22T05:31:36.462Z,8.60
2019-02-22T05:34:06.106Z,8.70
2019-02-22T05:36:35.602Z,8.70
2019-02-22T05:39:18.099Z,8.60
2019-02-22T05:41:37.711Z,8.70
2019-02-22T05:44:07.203Z,8.70
2019-02-22T05:46:36.772Z,8.80
2019-02-22T05:49:06.263Z,8.80
2019-02-22T05:51:35.693Z,8.80
2019-02-22T05:54:05.241Z,8.70
2019-02-22T05:56:34.951Z,8.60
2019-02-22T05:59:04.581Z,8.50
2019-02-22T06:01:34.109Z,8.70
2019-02-22T06:04:03.723Z,8.70
2019-02-22T06:06:33.325Z,8.60
2019-02-22T06:09:03.663Z,8.60
2019-02-22T06:11:33.346Z,8.60
2019-02-22T06:14:02.813Z,8.60
2019-02-22T06:16:32.521Z,8.60
2019-02-22T06:19:02.090Z,8.60
2019-02-22T06:21:31.597Z,8.50
2019-02-22T06:24:02.905Z,8.60
2019-02-22T06:26:32.409Z,8.50
2019-02-22T06:29:01.955Z,8.60
2019-02-22T06:31:33.569Z,8.60
2019-02-22T06:34:03.219Z,8.60
2019-02-22T06:36:32.938Z,8.60
2019-02-22T06:39:02.554Z,8.50
2019-02-22T06:41:32.374Z,8.50
2019-02-22T06:44:02.340Z,8.50
2019-02-22T06:46:31.743Z,8.50
2019-02-22T06:49:01.478Z,8.40
2019-02-22T06:51:31.113Z,8.40
2019-02-22T06:54:00.675Z,8.50
2019-02-22T06:56:30.896Z,8.40
2019-02-22T06:59:00.744Z,8.50
2019-02-22T07:01:33.043Z,8.50
2019-02-22T07:04:04.692Z,8.50
2019-02-22T07:06:34.549Z,8.60
2019-02-22T07:09:05.583Z,8.70
2019-02-22T07:11:59.981Z,8.70
2019-02-22T07:14:29.512Z,8.80
2019-02-22T07:16:59.103Z,8.80
2019-02-22T07:19:28.623Z,8.80
2019-02-22T07:21:58.085Z,8.80
2019-02-22T07:24:27.586Z,8.70
2019-02-22T07:26:57.112Z,8.60
2019-02-22T07:29:26.510Z,8.60
2019-02-22T07:32:05.438Z,8.70
2019-02-22T07:34:27.083Z,8.70
2019-02-22T07:36:56.513Z,8.80
2019-02-22T07:39:28.211Z,8.80
2019-02-22T07:41:57.192Z,8.80
2019-02-22T07:44:26.693Z,8.80
2019-02-22T07:46:56.095Z,8.80
2019-02-22T07:49:27.641Z,8.80
2019-02-22T07:51:57.221Z,8.70
2019-02-22T07:54:26.935Z,8.80
2019-02-22T07:56:56.605Z,8.90
2019-02-22T07:59:26.628Z,9.00
2019-02-22T08:01:56.069Z,9.10
2019-02-22T08:04:25.699Z,9.10
2019-02-22T08:06:55.288Z,9.10
2019-02-22T08:09:25.133Z,9.10
2019-02-22T08:11:54.692Z,9.20
2019-02-22T08:14:24.313Z,9.20
2019-02-22T08:16:54.251Z,9.20
2019-02-22T08:19:23.780Z,9.30
2019-02-22T08:21:53.309Z,9.30
2019-02-22T08:24:25.731Z,9.40
2019-02-22T08:26:54.118Z,9.40
2019-02-22T08:29:23.639Z,9.40
2019-02-22T08:31:53.156Z,9.40
2019-02-22T08:34:22.723Z,9.40
2019-02-22T08:36:52.138Z,9.50
2019-02-22T08:39:21.744Z,9.50
2019-02-22T08:41:51.392Z,9.50
2019-02-22T08:44:20.930Z,9.60
2019-02-22T08:46:50.470Z,9.50
2019-02-22T08:49:20.109Z,9.60
2019-02-22T08:51:49.555Z,9.60
2019-02-22T08:54:19.191Z,9.50
2019-02-22T08:56:49.051Z,9.40
2019-02-22T08:59:18.653Z,9.40
2019-02-22T09:01:48.588Z,9.40
2019-02-22T09:04:18.742Z,9.40
2019-02-22T09:06:48.448Z,9.50
2019-02-22T09:09:18.263Z,9.50
2019-02-22T09:11:47.859Z,9.40
2019-02-22T09:14:17.520Z,9.30
2019-02-22T09:16:47.052Z,9.30
2019-02-22T09:19:16.525Z,9.30
2019-02-22T09:21:46.090Z,9.30
2019-02-22T09:24:15.734Z,9.30
2019-02-22T09:26:45.320Z,9.30
2019-02-22T09:29:14.843Z,9.30
2019-02-22T09:31:44.586Z,9.40
2019-02-22T09:34:14.065Z,9.40
2019-02-22T09:36:43.532Z,9.40
2019-02-22T09:39:13.120Z,9.40
2019-02-22T09:41:42.812Z,9.30
2019-02-22T09:44:12.215Z,9.30
2019-02-22T09:46:42.434Z,9.40
2019-02-22T09:49:12.048Z,9.40
2019-02-22T09:51:41.512Z,9.30
2019-02-22T09:54:11.050Z,9.40
2019-02-22T09:56:40.461Z,9.40
2019-02-22T09:59:10.055Z,9.40
2019-02-22T10:01:39.507Z,9.40
2019-02-22T10:04:09.204Z,9.40
2019-02-22T10:06:38.759Z,9.60
2019-02-22T10:09:08.276Z,9.60
2019-02-22T10:11:37.914Z,9.70
2019-02-22T10:14:07.380Z,9.70
2019-02-22T10:16:36.772Z,9.60
2019-02-22T10:19:06.521Z,9.60
2019-02-22T10:21:38.047Z,9.60
2019-02-22T10:24:07.552Z,9.70
2019-02-22T10:26:36.996Z,9.80
2019-02-22T10:29:06.619Z,9.90
2019-02-22T10:31:36.303Z,9.90
2019-02-22T10:34:05.721Z,10.00
2019-02-22T10:36:44.729Z,10.10
2019-02-22T10:39:06.981Z,10.10
2019-02-22T10:41:36.398Z,10.20
2019-02-22T10:44:15.022Z,10.10
2019-02-22T10:46:37.536Z,10.00
2019-02-22T10:49:07.414Z,10.10
2019-02-22T10:51:37.089Z,10.20
2019-02-22T10:54:06.667Z,10.30
2019-02-22T10:56:36.202Z,10.40
2019-02-22T10:59:06.094Z,10.50
2019-02-22T11:01:35.554Z,10.60
2019-02-22T11:04:06.080Z,10.80
2019-02-22T11:06:35.660Z,11.00
2019-02-22T11:09:07.904Z,11.30
2019-02-22T11:11:37.509Z,11.60
2019-02-22T11:14:07.473Z,11.80
2019-02-22T11:16:37.026Z,12.00
2019-02-22T11:19:07.256Z,12.20
2019-02-22T11:21:36.647Z,12.30
2019-02-22T11:24:07.560Z,12.40
2019-02-22T11:26:37.500Z,12.60
2019-02-22T11:29:06.426Z,12.70
2019-02-22T11:31:36.065Z,12.80
2019-02-22T11:34:05.881Z,13.00
2019-02-22T11:36:35.554Z,13.00
2019-02-22T11:39:06.153Z,13.00
2019-02-22T11:41:35.876Z,13.10
2019-02-22T11:44:05.672Z,12.90
2019-02-22T11:46:35.315Z,13.00
2019-02-22T11:49:05.173Z,12.90
2019-02-22T11:51:34.742Z,13.00
2019-02-22T11:54:04.411Z,13.00
2019-02-22T11:56:34.263Z,13.20
2019-02-22T11:59:04.383Z,13.30
2019-02-22T12:01:34.234Z,13.40
2019-02-22T12:04:03.818Z,13.60
2019-02-22T12:06:33.794Z,13.40
2019-02-22T12:09:03.802Z,13.60
2019-02-22T12:11:33.332Z,13.80
2019-02-22T12:14:02.852Z,14.20
2019-02-22T12:16:32.527Z,14.20
2019-02-22T12:19:02.307Z,14.30
2019-02-22T12:21:31.917Z,14.50
2019-02-22T12:24:01.532Z,14.30
2019-02-22T12:26:31.946Z,14.30
2019-02-22T12:29:01.727Z,14.10
2019-02-22T12:31:31.345Z,14.40
2019-02-22T12:34:01.024Z,14.40
2019-02-22T12:36:30.628Z,14.50
2019-02-22T12:39:00.373Z,14.50
2019-02-22T12:41:30.107Z,14.40
2019-02-22T12:44:00.099Z,14.40
2019-02-22T12:46:29.806Z,14.50
2019-02-22T12:48:59.461Z,14.50
2019-02-22T12:51:29.459Z,14.60
2019-02-22T12:53:59.234Z,14.80
2019-02-22T12:56:55.930Z,14.70
2019-02-22T12:59:00.124Z,14.60
2019-02-22T13:01:29.692Z,14.10
2019-02-22T13:03:59.287Z,14.10
2019-02-22T13:06:28.967Z,14.00
2019-02-22T13:08:58.471Z,14.00
2019-02-22T13:11:28.024Z,13.90
2019-02-22T13:13:57.606Z,13.70
2019-02-22T13:16:27.087Z,13.80
2019-02-22T13:18:56.715Z,14.30
2019-02-22T13:21:26.428Z,14.80
2019-02-22T13:23:57.369Z,15.00
2019-02-22T13:26:26.879Z,14.90
2019-02-22T13:28:56.392Z,15.10
2019-02-22T13:31:30.076Z,15.50
2019-02-22T13:33:57.340Z,15.60
2019-02-22T13:36:26.885Z,16.00
2019-02-22T13:38:56.794Z,16.50
2019-02-22T13:41:26.399Z,16.90
2019-02-22T13:43:56.186Z,17.50
2019-02-22T13:46:26.655Z,18.40
2019-02-22T13:48:56.363Z,18.40
2019-02-22T13:51:26.160Z,18.70
2019-02-22T13:53:55.781Z,18.20
2019-02-22T13:56:29.590Z,18.40
2019-02-22T13:58:56.621Z,18.70
2019-02-22T14:01:28.458Z,19.70
2019-02-22T14:03:58.174Z,20.10
2019-02-22T14:06:27.833Z,21.00
2019-02-22T14:08:57.566Z,21.00
2019-02-22T14:11:27.293Z,20.20
2019-02-22T14:13:56.872Z,19.50
2019-02-22T14:16:26.585Z,19.20
2019-02-22T14:18:56.147Z,19.10
2019-02-22T14:21:25.992Z,19.20
2019-02-22T14:23:55.802Z,19.30
2019-02-22T14:26:25.616Z,19.90
2019-02-22T14:28:55.194Z,21.10
2019-02-22T14:31:24.746Z,21.90
2019-02-22T14:33:54.268Z,22.50
2019-02-22T14:36:23.905Z,22.90
2019-02-22T14:38:53.407Z,23.00
2019-02-22T14:41:22.999Z,22.90
2019-02-22T14:43:52.462Z,23.00
2019-02-22T14:46:25.866Z,23.40
2019-02-22T14:48:53.280Z,23.50
2019-02-22T14:51:23.045Z,24.00
2019-02-22T14:53:52.628Z,24.10
2019-02-22T14:56:22.218Z,24.10
2019-02-22T14:58:52.032Z,23.30
2019-02-22T15:01:21.589Z,22.60
2019-02-22T15:03:51.162Z,21.30
2019-02-22T15:06:20.759Z,20.10
2019-02-22T15:08:50.704Z,18.60
2019-02-22T15:11:21.403Z,17.10
2019-02-22T15:13:50.950Z,16.40
2019-02-22T15:16:42.316Z,16.10
2019-02-22T15:19:12.369Z,15.70
2019-02-22T15:21:42.309Z,15.30
2019-02-22T15:24:12.017Z,15.10
2019-02-22T15:26:41.509Z,14.90
2019-02-22T15:29:11.412Z,14.80
2019-02-22T15:31:41.236Z,14.70
2019-02-22T15:34:10.893Z,14.60
2019-02-22T15:36:40.381Z,14.50
2019-02-22T15:39:10.139Z,14.30
2019-02-22T15:41:39.979Z,14.20
2019-02-22T15:44:09.532Z,14.10
2019-02-22T15:46:39.064Z,14.10
2019-02-22T15:49:09.181Z,14.10
2019-02-22T15:51:38.801Z,14.10
2019-02-22T15:54:08.536Z,14.10
2019-02-22T15:56:38.216Z,14.10
2019-02-22T15:59:07.929Z,14.10
2019-02-22T16:01:37.827Z,14.10
2019-02-22T16:04:26.197Z,14.10
2019-02-22T16:06:55.950Z,14.10
2019-02-22T16:09:25.903Z,14.10
2019-02-22T16:11:55.393Z,14.20
2019-02-22T16:14:24.973Z,14.20
2019-02-22T16:16:54.621Z,14.10
2019-02-22T16:19:25.561Z,14.10
2019-02-22T16:21:55.177Z,14.10
2019-02-22T16:24:24.911Z,14.00
2019-02-22T16:27:03.728Z,14.00
2019-02-22T16:29:33.797Z,13.90
2019-02-22T16:32:04.399Z,13.90
2019-02-22T16:34:43.123Z,13.80
2019-02-22T16:37:05.604Z,13.80
2019-02-22T16:39:35.746Z,13.80
2019-02-22T16:42:05.570Z,13.80
2019-02-22T16:44:35.113Z,13.80
2019-02-22T16:47:04.706Z,13.70
2019-02-22T16:49:34.307Z,13.60
2019-02-22T16:52:03.988Z,13.50
2019-02-22T16:54:33.603Z,13.50
2019-02-22T16:57:03.208Z,13.40
2019-02-22T16:59:32.817Z,13.40
2019-02-22T17:02:02.902Z,13.30
2019-02-22T17:04:32.732Z,13.20
2019-02-22T17:07:02.528Z,13.10
2019-02-22T17:09:33.320Z,13.00
2019-02-22T17:12:06.338Z,12.90
2019-02-22T17:14:34.251Z,12.70
2019-02-22T17:17:03.824Z,12.70
2019-02-22T17:19:33.451Z,12.60
2019-02-22T17:22:03.290Z,12.50
2019-02-22T17:24:32.809Z,12.50
2019-02-22T17:27:02.493Z,12.60
2019-02-22T17:29:31.963Z,12.70
2019-02-22T17:32:02.323Z,12.70
2019-02-22T17:34:32.223Z,12.60
2019-02-22T17:37:01.996Z,12.60
2019-02-22T17:39:31.930Z,12.60
2019-02-22T17:42:01.469Z,12.70
2019-02-22T17:44:31.021Z,12.80
2019-02-22T17:47:00.991Z,12.80
2019-02-22T17:49:30.597Z,12.80
2019-02-22T17:52:00.292Z,12.80
2019-02-22T17:54:29.947Z,12.80
2019-02-22T17:56:59.650Z,12.80
2019-02-22T17:59:29.262Z,12.70
2019-02-22T18:01:58.956Z,12.60
2019-02-22T18:04:28.538Z,12.60
2019-02-22T18:06:58.367Z,12.50
2019-02-22T18:09:28.584Z,12.50
2019-02-22T18:11:58.277Z,12.50
2019-02-22T18:14:28.096Z,12.60
2019-02-22T18:17:07.717Z,12.60
2019-02-22T18:19:29.101Z,12.60
2019-02-22T18:21:58.818Z,12.60
2019-02-22T18:24:29.080Z,12.50
2019-02-22T18:26:59.047Z,12.50
2019-02-22T18:29:35.410Z,12.60
2019-02-22T18:32:00.325Z,12.60
2019-02-22T18:34:30.210Z,12.50
2019-02-22T18:36:59.867Z,12.50
2019-02-22T18:39:30.719Z,12.50
2019-02-22T18:42:00.176Z,12.50
2019-02-22T18:44:29.710Z,12.40
2019-02-22T18:47:00.420Z,12.40
2019-02-22T18:49:30.378Z,12.40
2019-02-22T18:52:00.379Z,12.40
2019-02-22T18:54:30.043Z,12.40
2019-02-22T18:57:00.054Z,12.30
2019-02-22T18:59:29.777Z,12.20
2019-02-22T19:01:59.405Z,12.20
2019-02-22T19:04:28.847Z,12.20
2019-02-22T19:06:58.500Z,12.20
2019-02-22T19:09:28.433Z,12.10
2019-02-22T19:11:58.483Z,12.00
2019-02-22T19:14:28.421Z,12.00
2019-02-22T19:16:57.967Z,12.00
2019-02-22T19:19:27.710Z,11.90
2019-02-22T19:21:57.187Z,11.80
2019-02-22T19:24:26.741Z,11.70
2019-02-22T19:26:56.255Z,11.70
2019-02-22T19:29:25.803Z,11.60
2019-02-22T19:31:55.477Z,11.60
2019-02-22T19:34:25.225Z,11.50
2019-02-22T19:36:54.668Z,11.50
2019-02-22T19:39:24.446Z,11.30
2019-02-22T19:41:53.942Z,11.30
2019-02-22T19:44:23.716Z,11.20
2019-02-22T19:46:55.615Z,11.10
2019-02-22T19:49:24.477Z,11.10
2019-02-22T19:51:54.102Z,11.10
2019-02-22T19:54:23.555Z,11.10
2019-02-22T19:56:53.145Z,11.00
2019-02-22T19:59:22.587Z,11.00
2019-02-22T20:01:52.166Z,11.00
2019-02-22T20:04:21.706Z,10.90
2019-02-22T20:06:51.407Z,10.90
2019-02-22T20:09:21.320Z,10.90
2019-02-22T20:11:51.303Z,10.90
2019-02-22T20:14:20.798Z,10.80
2019-02-22T20:16:50.321Z,10.80
2019-02-22T20:19:19.674Z,10.80
2019-02-22T20:21:49.078Z,10.80
2019-02-22T20:24:18.697Z,10.70
2019-02-22T20:26:48.202Z,10.60
2019-02-22T20:29:17.847Z,10.60
2019-02-22T20:31:47.695Z,10.50
2019-02-22T20:34:17.483Z,10.40
2019-02-22T20:36:47.219Z,10.40
2019-02-22T20:39:17.040Z,10.40
2019-02-22T20:41:48.121Z,10.40
2019-02-22T20:44:17.644Z,10.40
2019-02-22T20:46:47.242Z,10.30
2019-02-22T20:49:16.812Z,10.20
2019-02-22T20:51:46.536Z,10.20
2019-02-22T20:54:16.040Z,10.10
2019-02-22T20:56:45.801Z,10.10
2019-02-22T20:59:15.371Z,10.10
2019-02-22T21:01:44.918Z,10.20
2019-02-22T21:04:14.547Z,10.20
2019-02-22T21:06:44.384Z,10.20
2019-02-22T21:09:13.991Z,10.20
2019-02-22T21:11:43.547Z,10.20
2019-02-22T21:14:13.381Z,10.20
2019-02-22T21:16:42.901Z,10.20
2019-02-22T21:19:12.536Z,10.20
2019-02-22T21:21:42.582Z,10.20
2019-02-22T21:24:12.125Z,10.10
2019-02-22T21:26:41.620Z,10.20
2019-02-22T21:29:11.376Z,10.20
2019-02-22T21:31:40.970Z,10.10
2019-02-22T21:34:10.387Z,10.10
2019-02-22T21:36:40.488Z,10.10
2019-02-22T21:39:10.017Z,10.10
2019-02-22T21:41:39.672Z,10.10
2019-02-22T21:44:09.429Z,10.10
2019-02-22T21:46:39.026Z,10.10
2019-02-22T21:49:08.467Z,10.10
2019-02-22T21:51:38.178Z,10.00
2019-02-22T21:54:09.552Z,10.00
2019-02-22T21:56:39.267Z,9.90
2019-02-22T21:59:08.951Z,9.80
2019-02-22T22:01:38.763Z,9.90
2019-02-22T22:04:08.286Z,9.80
2019-02-22T22:06:38.076Z,9.80
2019-02-22T22:09:07.612Z,9.90
2019-02-22T22:11:37.041Z,9.90
2019-02-22T22:14:06.475Z,9.90
2019-02-22T22:16:35.965Z,9.90
2019-02-22T22:19:05.876Z,9.90
2019-02-22T22:21:35.286Z,9.90
2019-02-22T22:24:05.732Z,9.90
2019-02-22T22:26:35.317Z,9.80
2019-02-22T22:29:05.306Z,9.90
2019-02-22T22:31:35.110Z,9.90
2019-02-22T22:34:05.024Z,9.90
2019-02-22T22:36:34.638Z,9.80
2019-02-22T22:39:04.717Z,9.80
2019-02-22T22:41:34.218Z,9.80
2019-02-22T22:44:05.161Z,9.80
2019-02-22T22:46:37.891Z,9.70
2019-02-22T22:49:08.707Z,9.70
2019-02-22T22:51:38.355Z,9.70
2019-02-22T22:54:09.681Z,9.70
2019-02-22T22:56:39.635Z,9.70
2019-02-22T22:59:12.557Z,9.70
2019-02-22T23:01:43.699Z,9.70
2019-02-22T23:04:15.323Z,9.80
2019-02-22T23:06:46.318Z,9.80
2019-02-22T23:09:22.420Z,9.70
2019-02-22T23:11:55.473Z,9.70
2019-02-22T23:14:31.320Z,9.80
2019-02-22T23:17:02.613Z,9.70
2019-02-22T23:19:33.919Z,9.70
2019-02-22T23:22:05.405Z,9.80
2019-02-22T23:24:37.003Z,9.70
2019-02-22T23:27:08.374Z,9.70
2019-02-22T23:29:39.456Z,9.80
2019-02-22T23:32:10.494Z,9.80
2019-02-22T23:34:47.741Z,9.70
2019-02-22T23:37:19.800Z,9.70
2019-02-22T23:39:49.407Z,9.70
2019-02-22T23:42:19.692Z,9.70
2019-02-22T23:44:49.473Z,9.70
2019-02-22T23:47:19.952Z,9.70
2019-02-22T23:49:49.750Z,9.70
2019-02-22T23:52:19.337Z,9.60
2019-02-22T23:54:48.798Z,9.60
2019-02-22T23:57:18.452Z,9.60
2019-02-22T23:59:47.944Z,9.50
